createdAt,value
2022-10-18T00:02:32.042Z,8.93
2022-10-18T00:05:16.358Z,7.72
2022-10-18T00:08:18.289Z,6.93
2022-10-18T00:11:07.833Z,8.48
2022-10-18T00:14:03.733Z,7.50
2022-10-18T00:16:58.788Z,10.00
2022-10-18T00:22:30.544Z,6.15
2022-10-18T00:25:22.392Z,7.07
2022-10-18T00:27:58.612Z,6.70
2022-10-18T00:30:34.500Z,8.15
2022-10-18T00:33:10.361Z,8.35
2022-10-18T00:35:47.727Z,7.75
2022-10-18T00:38:31.980Z,6.47
2022-10-18T00:41:35.771Z,11.13
2022-10-18T00:44:11.074Z,9.85
2022-10-18T00:46:58.393Z,7.22
2022-10-18T00:49:43.604Z,13.93
2022-10-18T00:52:53.909Z,8.35
2022-10-18T00:55:34.373Z,10.98
2022-10-18T00:58:18.024Z,6.63
2022-10-18T01:00:56.824Z,10.20
2022-10-18T01:03:29.936Z,7.65
2022-10-18T01:06:03.681Z,12.05
2022-10-18T01:09:07.905Z,6.20
2022-10-18T01:12:39.658Z,8.20
2022-10-18T01:16:00.338Z,7.93
2022-10-18T01:18:58.752Z,8.32
2022-10-18T01:21:52.828Z,11.77
2022-10-18T01:24:56.551Z,8.93
2022-10-18T01:28:30.227Z,8.50
2022-10-18T01:31:35.932Z,8.05
2022-10-18T01:34:16.610Z,8.57
2022-10-18T01:36:58.659Z,8.48
2022-10-18T01:42:40.056Z,6.95
2022-10-18T01:45:56.956Z,8.68
2022-10-18T01:48:42.646Z,7.03
2022-10-18T01:51:41.708Z,7.75
2022-10-18T01:54:42.522Z,8.65
2022-10-18T01:57:32.438Z,6.38
2022-10-18T02:00:35.862Z,6.47
2022-10-18T02:03:23.755Z,10.60
2022-10-18T02:06:29.010Z,9.10
2022-10-18T02:09:19.985Z,8.15
2022-10-18T02:11:56.421Z,8.32
2022-10-18T02:14:37.110Z,6.72
2022-10-18T02:17:19.315Z,8.55
2022-10-18T02:20:10.563Z,10.40
2022-10-18T02:23:07.982Z,7.53
2022-10-18T02:25:45.194Z,7.45
2022-10-18T02:28:29.287Z,9.73
2022-10-18T02:32:11.786Z,10.60
2022-10-18T02:35:24.039Z,8.23
2022-10-18T02:38:23.511Z,6.03
2022-10-18T02:41:20.968Z,10.93
2022-10-18T02:44:49.616Z,6.55
2022-10-18T02:47:32.287Z,8.02
2022-10-18T02:50:10.116Z,7.68
2022-10-18T02:52:44.910Z,8.30
2022-10-18T02:55:21.539Z,9.00
2022-10-18T02:57:57.071Z,10.63
2022-10-18T03:00:35.227Z,8.07
2022-10-18T03:03:07.976Z,10.20
2022-10-18T03:05:42.306Z,9.15
2022-10-18T03:08:18.513Z,8.85
2022-10-18T03:10:53.138Z,9.65
2022-10-18T03:13:37.959Z,9.98
2022-10-18T03:16:42.591Z,8.98
2022-10-18T03:19:31.261Z,9.00
2022-10-18T03:22:20.803Z,9.40
2022-10-18T03:24:59.644Z,9.88
2022-10-18T03:27:48.671Z,10.80
2022-10-18T03:30:29.141Z,15.95
2022-10-18T03:35:53.364Z,12.05
2022-10-18T03:38:26.368Z,11.05
2022-10-18T03:41:09.922Z,15.35
2022-10-18T03:43:49.485Z,11.90
2022-10-18T03:46:37.361Z,10.02
2022-10-18T03:49:20.202Z,16.27
2022-10-18T03:51:53.113Z,12.50
2022-10-18T03:54:31.419Z,13.23
2022-10-18T03:57:07.295Z,11.18
2022-10-18T03:59:42.435Z,12.50
2022-10-18T04:02:25.859Z,10.60
2022-10-18T04:05:02.313Z,12.40
2022-10-18T04:07:41.897Z,12.20
2022-10-18T04:10:20.139Z,12.10
2022-10-18T04:13:03.021Z,12.88
2022-10-18T04:15:40.458Z,11.25
2022-10-18T04:18:15.645Z,14.57
2022-10-18T04:20:49.779Z,15.52
2022-10-18T04:23:25.627Z,14.55
2022-10-18T04:26:04.462Z,10.25
2022-10-18T04:28:48.832Z,9.85
2022-10-18T04:31:31.496Z,10.05
2022-10-18T04:34:37.773Z,9.98
2022-10-18T04:37:21.747Z,13.45
2022-10-18T04:40:12.977Z,10.50
2022-10-18T04:42:53.706Z,10.90
2022-10-18T04:45:39.111Z,12.95
2022-10-18T04:48:17.694Z,10.73
2022-10-18T04:50:52.683Z,10.60
2022-10-18T04:53:31.079Z,12.18
2022-10-18T04:56:03.798Z,11.27
2022-10-18T04:58:36.768Z,11.23
2022-10-18T05:01:09.378Z,12.55
2022-10-18T05:03:42.060Z,17.85
2022-10-18T05:06:14.770Z,11.95
2022-10-18T05:08:51.268Z,12.05
2022-10-18T05:11:33.491Z,14.40
2022-10-18T05:16:43.862Z,11.90
2022-10-18T05:21:49.312Z,12.68
2022-10-18T05:24:24.220Z,18.92
2022-10-18T05:27:00.356Z,16.88
2022-10-18T05:29:33.238Z,15.15
2022-10-18T05:32:05.939Z,13.63
2022-10-18T05:34:38.699Z,16.88
2022-10-18T05:37:13.989Z,17.45
2022-10-18T05:39:57.792Z,20.13
2022-10-18T05:42:30.794Z,26.02
2022-10-18T05:45:04.365Z,25.73
2022-10-18T05:47:37.160Z,27.25
2022-10-18T05:50:10.318Z,32.38
2022-10-18T05:52:43.019Z,27.23
2022-10-18T05:55:16.104Z,40.08
2022-10-18T05:57:54.401Z,44.80
2022-10-18T06:00:31.254Z,100.30
2022-10-18T06:03:06.537Z,169.90
2022-10-18T06:05:41.822Z,87.40
2022-10-18T06:08:20.738Z,54.97
2022-10-18T06:10:53.503Z,108.80
2022-10-18T06:13:26.465Z,88.28
2022-10-18T06:15:59.296Z,76.75
2022-10-18T06:18:31.923Z,24.17
2022-10-18T06:21:05.222Z,23.13
2022-10-18T06:23:38.071Z,94.28
2022-10-18T06:26:18.021Z,28.60
2022-10-18T06:28:51.440Z,99.47
2022-10-18T06:31:25.667Z,56.70
2022-10-18T06:34:03.833Z,38.40
2022-10-18T06:36:40.475Z,29.25
2022-10-18T06:39:13.206Z,20.88
2022-10-18T06:41:46.010Z,39.92
2022-10-18T06:44:21.821Z,42.88
2022-10-18T06:46:56.687Z,56.00
2022-10-18T06:49:29.249Z,21.38
2022-10-18T06:52:02.042Z,32.10
2022-10-18T06:54:37.841Z,15.07
2022-10-18T06:57:10.415Z,41.92
2022-10-18T06:59:43.477Z,62.55
2022-10-18T07:02:19.914Z,32.15
2022-10-18T07:04:52.489Z,69.65
2022-10-18T07:07:25.153Z,77.30
2022-10-18T07:09:59.143Z,68.22
2022-10-18T07:12:33.233Z,58.28
2022-10-18T07:15:09.400Z,49.70
2022-10-18T07:17:43.657Z,81.97
2022-10-18T07:20:16.732Z,67.60
2022-10-18T07:22:49.381Z,28.70
2022-10-18T07:25:23.877Z,59.45
2022-10-18T07:27:58.553Z,80.38
2022-10-18T07:30:31.212Z,46.17
2022-10-18T07:33:06.299Z,78.53
2022-10-18T07:35:38.974Z,101.68
2022-10-18T07:38:14.158Z,105.68
2022-10-18T07:41:07.416Z,143.07
2022-10-18T07:43:50.979Z,81.35
2022-10-18T07:46:23.636Z,77.82
2022-10-18T07:48:58.331Z,45.95
2022-10-18T07:51:33.972Z,48.50
2022-10-18T07:54:06.764Z,62.92
2022-10-18T07:56:39.478Z,39.30
2022-10-18T07:59:14.535Z,36.47
2022-10-18T08:01:58.184Z,31.77
2022-10-18T08:04:32.810Z,25.00
2022-10-18T08:07:09.739Z,16.40
2022-10-18T08:09:45.553Z,19.00
2022-10-18T08:12:24.818Z,20.48
2022-10-18T08:15:00.647Z,19.48
2022-10-18T08:17:37.025Z,17.52
2022-10-18T08:20:30.398Z,16.70
2022-10-18T08:23:11.338Z,16.85
2022-10-18T08:25:46.939Z,14.38
2022-10-18T08:31:08.342Z,13.50
2022-10-18T08:33:42.984Z,16.85
2022-10-18T08:36:17.527Z,15.88
2022-10-18T08:38:52.937Z,15.73
2022-10-18T08:42:01.922Z,16.50
2022-10-18T08:44:49.778Z,21.77
2022-10-18T08:47:43.910Z,19.30
2022-10-18T08:50:46.952Z,17.30
2022-10-18T08:53:29.900Z,14.35
2022-10-18T08:56:21.679Z,15.98
2022-10-18T08:59:00.611Z,16.88
2022-10-18T09:02:08.370Z,16.90
2022-10-18T09:05:06.334Z,19.17
2022-10-18T09:08:25.880Z,16.75
2022-10-18T09:11:40.401Z,14.38
2022-10-18T09:14:25.205Z,19.70
2022-10-18T09:17:33.811Z,13.82
2022-10-18T09:20:22.917Z,15.45
2022-10-18T09:23:06.734Z,13.25
2022-10-18T09:26:20.543Z,13.25
2022-10-18T09:29:23.075Z,15.52
2022-10-18T09:32:19.343Z,15.43
2022-10-18T09:35:15.170Z,16.52
2022-10-18T09:37:52.337Z,18.95
2022-10-18T09:40:32.494Z,14.85
2022-10-18T09:43:22.919Z,20.88
2022-10-18T09:45:57.511Z,9.80
2022-10-18T09:48:49.361Z,16.35
2022-10-18T09:51:29.553Z,15.07
2022-10-18T09:54:19.192Z,14.75
2022-10-18T09:57:10.049Z,13.00
2022-10-18T09:59:45.813Z,11.63
2022-10-18T10:02:23.794Z,12.57
2022-10-18T10:04:57.096Z,16.52
2022-10-18T10:07:41.297Z,19.02
2022-10-18T10:10:25.266Z,15.88
2022-10-18T10:13:22.086Z,16.13
2022-10-18T10:16:03.287Z,18.27
2022-10-18T10:18:43.494Z,21.33
2022-10-18T10:21:17.463Z,15.48
2022-10-18T10:24:02.052Z,14.18
2022-10-18T10:26:41.681Z,15.95
2022-10-18T10:29:51.493Z,12.02
2022-10-18T10:32:30.748Z,12.73
2022-10-18T10:35:52.549Z,14.45
2022-10-18T10:38:29.309Z,15.45
2022-10-18T10:41:03.267Z,12.27
2022-10-18T10:43:40.093Z,18.98
2022-10-18T10:46:19.145Z,14.18
2022-10-18T10:49:27.889Z,11.20
2022-10-18T10:52:09.293Z,16.17
2022-10-18T10:57:52.809Z,7.22
2022-10-18T11:00:45.097Z,12.77
2022-10-18T11:03:28.968Z,11.10
2022-10-18T11:06:02.390Z,6.65
2022-10-18T11:08:43.558Z,9.82
2022-10-18T11:11:30.714Z,6.95
2022-10-18T11:14:26.292Z,11.48
2022-10-18T11:17:39.705Z,14.35
2022-10-18T11:20:32.938Z,6.25
2022-10-18T11:23:17.383Z,9.77
2022-10-18T11:26:11.495Z,11.73
2022-10-18T11:29:26.053Z,12.18
2022-10-18T11:32:12.112Z,8.93
2022-10-18T11:34:54.171Z,8.55
2022-10-18T11:38:14.266Z,9.55
2022-10-18T11:41:23.983Z,9.90
2022-10-18T11:44:04.409Z,4.20
2022-10-18T11:47:16.651Z,7.85
2022-10-18T11:50:08.672Z,6.13
2022-10-18T11:53:06.678Z,6.47
2022-10-18T11:56:30.165Z,15.85
2022-10-18T11:59:27.741Z,13.15
2022-10-18T12:02:42.073Z,6.15
2022-10-18T12:05:24.085Z,5.80
2022-10-18T12:08:07.103Z,7.93
2022-10-18T12:11:04.144Z,7.75
2022-10-18T12:13:51.210Z,6.85
2022-10-18T12:16:50.018Z,13.23
2022-10-18T12:19:28.394Z,9.77
2022-10-18T12:22:20.003Z,6.05
2022-10-18T12:24:52.733Z,9.10
2022-10-18T12:27:56.635Z,10.80
2022-10-18T12:30:54.357Z,8.48
2022-10-18T12:33:36.087Z,5.82
2022-10-18T12:36:20.814Z,5.40
2022-10-18T12:39:07.033Z,15.02
2022-10-18T12:41:39.776Z,7.03
2022-10-18T12:44:31.481Z,4.65
2022-10-18T12:47:06.628Z,4.85
2022-10-18T12:49:42.603Z,7.88
2022-10-18T12:52:24.911Z,6.57
2022-10-18T12:55:18.198Z,5.28
2022-10-18T12:57:53.621Z,11.15
2022-10-18T13:03:14.222Z,7.65
2022-10-18T13:05:54.430Z,8.45
2022-10-18T13:08:27.795Z,13.88
2022-10-18T13:11:12.262Z,8.00
2022-10-18T13:14:17.294Z,6.35
2022-10-18T13:16:57.010Z,5.88
2022-10-18T13:19:38.043Z,13.15
2022-10-18T13:22:31.359Z,5.57
2022-10-18T13:25:33.107Z,10.23
2022-10-18T13:28:31.633Z,8.57
2022-10-18T13:31:39.506Z,9.73
2022-10-18T13:34:30.953Z,7.22
2022-10-18T13:37:20.703Z,8.65
2022-10-18T13:40:24.393Z,8.52
2022-10-18T13:42:57.064Z,11.40
2022-10-18T13:45:32.648Z,7.45
2022-10-18T13:48:30.242Z,5.88
2022-10-18T13:52:03.410Z,7.90
2022-10-18T13:55:15.975Z,5.80
2022-10-18T13:58:08.482Z,12.73
2022-10-18T14:00:49.462Z,4.25
2022-10-18T14:03:56.314Z,10.88
2022-10-18T14:06:43.145Z,5.45
2022-10-18T14:09:40.257Z,5.00
2022-10-18T14:12:44.115Z,6.43
2022-10-18T14:15:42.021Z,8.18
2022-10-18T14:18:31.778Z,12.45
2022-10-18T14:21:21.842Z,9.80
2022-10-18T14:23:55.259Z,6.65
2022-10-18T14:26:29.303Z,12.73
2022-10-18T14:29:16.192Z,7.85
2022-10-18T14:31:54.546Z,9.60
2022-10-18T14:34:27.115Z,5.93
2022-10-18T14:37:07.257Z,7.97
2022-10-18T14:39:51.399Z,5.05
2022-10-18T14:42:32.211Z,5.50
2022-10-18T14:45:22.978Z,12.40
2022-10-18T14:48:14.696Z,3.22
2022-10-18T14:51:00.129Z,5.95
2022-10-18T14:53:38.876Z,5.88
2022-10-18T14:56:25.482Z,9.23
2022-10-18T14:59:03.651Z,3.33
2022-10-18T15:01:36.623Z,5.68
2022-10-18T15:04:12.019Z,4.50
2022-10-18T15:06:45.061Z,7.60
2022-10-18T15:09:24.089Z,4.60
2022-10-18T15:11:57.993Z,3.97
2022-10-18T15:14:31.597Z,8.77
2022-10-18T15:17:25.124Z,6.53
2022-10-18T15:20:25.178Z,7.32
2022-10-18T15:23:33.276Z,6.00
2022-10-18T15:26:12.604Z,3.53
2022-10-18T15:28:54.051Z,5.20
2022-10-18T15:31:32.133Z,5.85
2022-10-18T15:34:30.770Z,9.00
2022-10-18T15:37:18.398Z,8.55
2022-10-18T15:40:32.909Z,12.75
2022-10-18T15:43:28.224Z,4.95
2022-10-18T15:46:06.702Z,7.68
2022-10-18T15:48:41.614Z,2.63
2022-10-18T15:51:48.300Z,9.23
2022-10-18T15:54:32.427Z,3.35
2022-10-18T15:57:11.562Z,10.93
2022-10-18T16:00:20.513Z,10.10
2022-10-18T16:02:53.055Z,11.65
2022-10-18T16:05:28.272Z,5.93
2022-10-18T16:08:01.044Z,5.35
2022-10-18T16:10:33.735Z,6.45
2022-10-18T16:13:06.696Z,10.73
2022-10-18T16:15:39.410Z,7.70
2022-10-18T16:18:19.284Z,6.45
2022-10-18T16:20:53.226Z,8.93
2022-10-18T16:23:31.143Z,7.70
2022-10-18T16:26:03.829Z,10.40
2022-10-18T16:28:36.614Z,12.02
2022-10-18T16:33:50.534Z,6.68
2022-10-18T16:36:26.973Z,6.40
2022-10-18T16:39:04.695Z,7.80
2022-10-18T16:41:37.264Z,9.25
2022-10-18T16:44:10.003Z,11.15
2022-10-18T16:46:42.834Z,10.18
2022-10-18T16:49:24.310Z,7.30
2022-10-18T16:51:57.511Z,4.90
2022-10-18T16:54:30.139Z,9.15
2022-10-18T16:57:02.682Z,6.93
2022-10-18T16:59:35.177Z,15.07
2022-10-18T17:02:09.384Z,11.95
2022-10-18T17:04:42.044Z,11.50
2022-10-18T17:07:25.534Z,8.02
2022-10-18T17:09:58.075Z,7.82
2022-10-18T17:12:30.707Z,7.88
2022-10-18T17:15:04.226Z,9.85
2022-10-18T17:17:38.140Z,11.32
2022-10-18T17:20:21.184Z,5.65
2022-10-18T17:22:54.238Z,7.53
2022-10-18T17:25:26.791Z,5.28
2022-10-18T17:27:59.297Z,6.20
2022-10-18T17:30:32.812Z,7.38
2022-10-18T17:33:08.554Z,12.02
2022-10-18T17:35:43.231Z,13.43
2022-10-18T17:38:15.911Z,13.05
2022-10-18T17:40:48.385Z,11.90
2022-10-18T17:43:20.981Z,11.25
2022-10-18T17:45:56.762Z,10.57
2022-10-18T17:51:11.057Z,12.07
2022-10-18T17:53:44.121Z,9.95
2022-10-18T17:56:16.754Z,7.93
2022-10-18T17:58:52.824Z,13.30
2022-10-18T18:01:25.650Z,11.02
2022-10-18T18:04:01.366Z,8.10
2022-10-18T18:06:38.921Z,7.32
2022-10-18T18:09:15.097Z,7.80
2022-10-18T18:11:48.798Z,10.65
2022-10-18T18:14:21.601Z,5.38
2022-10-18T18:16:54.820Z,5.70
2022-10-18T18:19:27.633Z,12.23
2022-10-18T18:22:00.386Z,8.07
2022-10-18T18:24:33.404Z,5.78
2022-10-18T18:27:05.947Z,6.30
2022-10-18T18:29:38.538Z,10.00
2022-10-18T18:32:11.080Z,11.05
2022-10-18T18:34:43.711Z,5.00
2022-10-18T18:37:16.203Z,6.75
2022-10-18T18:39:48.949Z,7.03
2022-10-18T18:42:22.523Z,10.00
2022-10-18T18:44:55.115Z,5.72
2022-10-18T18:47:28.030Z,10.15
2022-10-18T18:50:02.417Z,6.80
2022-10-18T18:52:35.218Z,10.60
2022-10-18T18:55:08.826Z,5.18
2022-10-18T18:57:41.406Z,7.20
2022-10-18T19:00:14.922Z,7.57
2022-10-18T19:02:47.406Z,10.57
2022-10-18T19:05:20.078Z,6.18
2022-10-18T19:07:52.633Z,6.18
2022-10-18T19:10:26.061Z,5.07
2022-10-18T19:12:58.635Z,6.03
2022-10-18T19:15:31.277Z,9.05
2022-10-18T19:18:05.508Z,5.18
2022-10-18T19:20:38.037Z,11.25
2022-10-18T19:23:10.667Z,6.22
2022-10-18T19:25:43.208Z,10.88
2022-10-18T19:28:15.667Z,11.38
2022-10-18T19:30:50.218Z,8.38
2022-10-18T19:33:41.073Z,10.10
2022-10-18T19:36:15.605Z,8.70
2022-10-18T19:38:48.166Z,9.02
2022-10-18T19:41:21.566Z,9.75
2022-10-18T19:43:55.709Z,8.20
2022-10-18T19:46:28.430Z,5.00
2022-10-18T19:49:01.011Z,9.30
2022-10-18T19:51:33.690Z,8.40
2022-10-18T19:54:06.556Z,6.82
2022-10-18T19:56:39.469Z,8.00
2022-10-18T19:59:15.116Z,10.18
2022-10-18T20:01:47.689Z,4.97
2022-10-18T20:04:20.329Z,7.97
2022-10-18T20:06:52.817Z,11.63
2022-10-18T20:09:25.435Z,14.90
2022-10-18T20:11:58.584Z,9.40
2022-10-18T20:14:31.347Z,8.30
2022-10-18T20:17:05.735Z,8.30
2022-10-18T20:19:38.549Z,4.45
2022-10-18T20:22:11.071Z,9.40
2022-10-18T20:24:43.609Z,11.05
2022-10-18T20:27:16.344Z,12.18
2022-10-18T20:29:48.995Z,8.15
2022-10-18T20:32:21.509Z,10.90
2022-10-18T20:34:54.065Z,9.38
2022-10-18T20:37:26.586Z,11.52
2022-10-18T20:40:00.141Z,12.80
2022-10-18T20:42:32.650Z,9.63
2022-10-18T20:45:07.730Z,4.15
2022-10-18T20:47:40.322Z,9.45
2022-10-18T20:50:12.926Z,11.23
2022-10-18T20:52:50.997Z,8.55
2022-10-18T20:55:23.615Z,6.22
2022-10-18T20:57:56.162Z,10.60
2022-10-18T21:00:28.671Z,12.48
2022-10-18T21:03:01.518Z,8.40
2022-10-18T21:05:34.099Z,6.15
2022-10-18T21:08:06.608Z,9.07
2022-10-18T21:10:39.156Z,9.98
2022-10-18T21:13:11.680Z,7.03
2022-10-18T21:15:44.194Z,10.63
2022-10-18T21:18:16.713Z,7.60
2022-10-18T21:20:49.236Z,8.20
2022-10-18T21:23:22.603Z,8.57
2022-10-18T21:25:55.111Z,10.00
2022-10-18T21:28:27.776Z,7.88
2022-10-18T21:31:19.526Z,11.35
2022-10-18T21:34:00.736Z,14.02
2022-10-18T21:36:37.651Z,14.93
2022-10-18T21:39:18.836Z,8.45
2022-10-18T21:41:51.797Z,6.78
2022-10-18T21:44:24.355Z,10.23
2022-10-18T21:46:56.923Z,13.20
2022-10-18T21:49:30.251Z,7.88
2022-10-18T21:52:05.265Z,11.68
2022-10-18T21:54:37.977Z,9.95
2022-10-18T21:57:10.545Z,15.85
2022-10-18T21:59:43.410Z,9.52
2022-10-18T22:02:15.918Z,11.43
2022-10-18T22:04:49.605Z,7.93
2022-10-18T22:07:22.142Z,7.97
2022-10-18T22:09:54.657Z,14.30
2022-10-18T22:12:27.202Z,10.40
2022-10-18T22:15:00.299Z,10.93
2022-10-18T22:17:33.167Z,9.80
2022-10-18T22:20:06.761Z,9.95
2022-10-18T22:22:39.341Z,13.63
2022-10-18T22:25:11.923Z,6.90
2022-10-18T22:27:44.411Z,9.30
2022-10-18T22:30:17.049Z,8.32
2022-10-18T22:32:49.611Z,12.13
2022-10-18T22:35:22.427Z,12.57
2022-10-18T22:37:54.894Z,8.43
2022-10-18T22:40:27.864Z,12.35
2022-10-18T22:43:00.414Z,13.88
2022-10-18T22:45:33.011Z,13.48
2022-10-18T22:48:06.264Z,14.57
2022-10-18T22:50:38.769Z,9.63
2022-10-18T22:53:11.330Z,6.70
2022-10-18T22:55:43.798Z,13.15
2022-10-18T22:58:16.522Z,10.50
2022-10-18T23:00:49.346Z,12.15
2022-10-18T23:03:21.856Z,10.07
2022-10-18T23:05:57.971Z,13.70
2022-10-18T23:11:03.665Z,10.68
2022-10-18T23:13:38.832Z,12.93
2022-10-18T23:16:12.678Z,11.38
2022-10-18T23:18:51.691Z,17.88
2022-10-18T23:21:27.934Z,5.82
2022-10-18T23:24:00.480Z,16.23
2022-10-18T23:26:33.409Z,17.70
2022-10-18T23:29:06.016Z,15.43
2022-10-18T23:31:38.875Z,9.60
2022-10-18T23:34:11.502Z,7.93
2022-10-18T23:39:21.691Z,11.05
2022-10-18T23:41:54.227Z,10.40
2022-10-18T23:44:26.783Z,9.93
2022-10-18T23:46:59.323Z,10.43
2022-10-18T23:49:31.890Z,8.73
2022-10-18T23:52:04.546Z,11.40
2022-10-18T23:54:37.093Z,11.45
2022-10-18T23:57:09.606Z,12.18
2022-10-18T23:59:42.226Z,13.07
